Time;durP1;ratioP1;P1;durP2;ratioP2;P2;SDS_P1;SDS_P2;PMS_P1;PMS_P2;Temp;Humidity;BMP_temperature;BMP_pressure;BME280_temperature;BME280_humidity;BME280_pressure;Samples;Min_cycle;Max_cycle;Signal;HPM_P1;HPM_P2
2023/03/29 00:01:12;;;;;;;10.88;4.32;;;4.60;65.50;;;;;;4134790;28;20498;-84
2023/03/29 00:03:13;;;;;;;10.73;4.68;;;4.50;65.30;;;;;;4136691;28;20113;-86
2023/03/29 00:05:15;;;;;;;11.80;4.57;;;4.50;65.30;;;;;;4100335;28;20085;-85
2023/03/29 00:07:32;;;;;;;11.80;4.30;;;4.50;65.80;;;;;;4136559;28;20025;-86
2023/03/29 00:09:41;;;;;;;10.48;4.05;;;4.40;66.30;;;;;;4126417;28;20058;-88
2023/03/29 00:12:03;;;;;;;15.15;6.18;;;4.40;66.20;;;;;;4125455;28;20101;-84
2023/03/29 00:14:31;;;;;;;12.32;5.45;;;4.40;66.00;;;;;;4141707;28;20407;-86
2023/03/29 00:16:52;;;;;;;10.25;5.70;;;4.40;65.90;;;;;;4125142;28;20133;-86
2023/03/29 00:19:12;;;;;;;14.38;6.75;;;4.40;66.00;;;;;;4135160;28;20065;-85
2023/03/29 00:21:33;;;;;;;14.27;6.97;;;4.40;66.10;;;;;;4135252;28;20122;-85
2023/03/29 00:23:55;;;;;;;15.02;7.32;;;4.30;66.20;;;;;;4120202;28;20077;-86
2023/03/29 00:26:16;;;;;;;16.35;7.28;;;4.30;66.40;;;;;;4126884;28;20092;-86
2023/03/29 00:28:37;;;;;;;12.70;7.10;;;4.20;66.40;;;;;;4138615;28;20034;-86
2023/03/29 00:31:18;;;;;;;13.30;6.70;;;4.20;66.70;;;;;;4140806;28;20030;-85
2023/03/29 00:33:41;;;;;;;10.68;6.75;;;4.20;67.10;;;;;;4138120;28;20034;-85
2023/03/29 00:36:03;;;;;;;9.80;6.32;;;4.30;66.90;;;;;;4126248;28;20050;-85
2023/03/29 00:38:23;;;;;;;15.48;6.70;;;4.20;67.20;;;;;;4137647;28;20034;-85
2023/03/29 00:40:48;;;;;;;12.02;6.68;;;4.20;67.20;;;;;;4136413;28;20037;-85
2023/03/29 00:43:13;;;;;;;12.15;6.40;;;4.30;67.30;;;;;;4136081;28;20037;-85
2023/03/29 00:45:35;;;;;;;13.90;7.10;;;4.10;67.40;;;;;;4121562;28;20033;-86
2023/03/29 00:48:01;;;;;;;14.63;8.18;;;4.20;67.60;;;;;;4137801;28;20113;-86
2023/03/29 00:50:38;;;;;;;12.70;8.20;;;4.10;67.60;;;;;;4137645;28;20034;-86
2023/03/29 00:52:51;;;;;;;15.15;8.90;;;4.10;68.10;;;;;;4100049;28;20035;-86
2023/03/29 00:54:54;;;;;;;16.47;8.77;;;4.10;67.80;;;;;;4136177;28;20081;-88
2023/03/29 00:56:55;;;;;;;15.63;9.77;;;4.10;68.00;;;;;;4123040;28;20034;-85
2023/03/29 00:59:06;;;;;;;18.83;10.13;;;4.10;68.20;;;;;;4110476;28;20093;-87
2023/03/29 01:01:14;;;;;;;18.55;10.63;;;4.00;68.30;;;;;;4122122;28;20145;-89
2023/03/29 01:03:23;;;;;;;17.65;12.00;;;4.00;68.60;;;;;;4136916;28;20041;-87
2023/03/29 01:05:36;;;;;;;18.83;11.32;;;4.00;68.60;;;;;;4123329;28;20558;-87
2023/03/29 01:08:03;;;;;;;22.90;12.77;;;4.00;68.60;;;;;;4113655;28;20031;-87
2023/03/29 01:10:14;;;;;;;19.65;13.55;;;4.00;69.30;;;;;;4125508;28;20044;-85
2023/03/29 01:12:19;;;;;;;20.70;12.30;;;4.00;69.00;;;;;;4120416;28;20154;-87
2023/03/29 01:14:58;;;;;;;17.95;12.23;;;3.90;69.00;;;;;;4135876;28;20041;-87
2023/03/29 01:17:05;;;;;;;18.38;12.30;;;3.90;69.40;;;;;;4055096;29;20567;-87
2023/03/29 01:19:11;;;;;;;21.25;11.75;;;3.90;69.10;;;;;;4057891;29;20020;-84
2023/03/29 01:21:22;;;;;;;20.33;12.80;;;3.90;69.20;;;;;;4074426;29;20035;-85
2023/03/29 01:23:52;;;;;;;21.15;11.48;;;3.80;69.50;;;;;;4071150;29;20116;-85
2023/03/29 01:26:23;;;;;;;16.80;11.75;;;3.80;70.00;;;;;;4015435;29;20099;-85
2023/03/29 01:28:30;;;;;;;17.70;11.02;;;3.90;69.90;;;;;;4072003;29;20028;-86
2023/03/29 01:30:52;;;;;;;16.75;11.55;;;3.80;69.60;;;;;;4074499;29;20032;-87
2023/03/29 01:33:24;;;;;;;18.80;10.80;;;3.70;69.80;;;;;;4057265;29;20044;-86
2023/03/29 01:35:58;;;;;;;13.98;9.82;;;3.70;70.10;;;;;;4024273;29;20029;-86
2023/03/29 01:38:23;;;;;;;17.13;10.45;;;3.70;70.20;;;;;;4037975;29;20697;-85
2023/03/29 01:40:32;;;;;;;15.95;9.40;;;3.70;70.10;;;;;;4048058;29;20075;-87
2023/03/29 01:42:42;;;;;;;15.68;10.27;;;3.60;70.00;;;;;;4050484;29;20048;-86
2023/03/29 01:45:05;;;;;;;19.42;10.32;;;3.60;70.00;;;;;;4044451;29;20063;-87
2023/03/29 01:47:16;;;;;;;14.80;10.35;;;3.60;71.00;;;;;;4046981;29;20232;-86
2023/03/29 01:49:28;;;;;;;17.05;10.45;;;3.60;70.30;;;;;;4022512;29;20029;-85
2023/03/29 01:51:41;;;;;;;18.30;10.93;;;3.60;70.60;;;;;;4026871;29;20456;-86
2023/03/29 01:53:48;;;;;;;14.32;9.65;;;3.70;70.70;;;;;;4074592;29;20082;-86
2023/03/29 01:55:54;;;;;;;17.48;10.50;;;3.60;70.60;;;;;;4074634;29;20063;-85
2023/03/29 01:57:58;;;;;;;16.63;10.80;;;3.50;70.80;;;;;;4096465;28;20159;-86
2023/03/29 02:00:08;;;;;;;16.80;10.48;;;3.50;70.90;;;;;;4076350;29;20138;-86
2023/03/29 02:02:15;;;;;;;18.15;11.02;;;3.50;71.00;;;;;;4066146;29;20032;-85
2023/03/29 02:04:27;;;;;;;18.85;11.07;;;3.60;71.00;;;;;;4079616;29;20028;-86
2023/03/29 02:06:30;;;;;;;19.63;11.23;;;3.60;71.00;;;;;;4058110;29;20845;-86
2023/03/29 02:08:31;;;;;;;20.88;11.82;;;3.60;71.20;;;;;;4070944;29;20383;-86
2023/03/29 02:10:36;;;;;;;17.83;11.38;;;3.60;71.70;;;;;;4090297;28;20043;-86
2023/03/29 02:12:37;;;;;;;19.95;11.70;;;3.60;71.30;;;;;;4105082;28;20034;-84
2023/03/29 02:14:38;;;;;;;25.08;11.70;;;3.50;71.70;;;;;;4136356;28;20097;-86
2023/03/29 02:16:39;;;;;;;21.25;12.45;;;3.50;71.50;;;;;;4118190;28;20031;-86
2023/03/29 02:18:44;;;;;;;20.85;11.90;;;3.50;71.40;;;;;;4121310;28;20066;-85
2023/03/29 02:20:47;;;;;;;24.02;12.48;;;3.50;72.20;;;;;;4137925;28;20033;-85
2023/03/29 02:23:03;;;;;;;20.80;11.40;;;3.50;71.40;;;;;;4118429;28;20058;-85
2023/03/29 02:25:08;;;;;;;24.08;11.55;;;3.50;71.70;;;;;;4108076;28;20098;-85
2023/03/29 02:27:18;;;;;;;19.40;11.25;;;3.40;71.70;;;;;;4123685;28;20031;-86
2023/03/29 02:29:22;;;;;;;18.23;10.40;;;3.50;71.80;;;;;;4118381;28;20040;-85
2023/03/29 02:32:07;;;;;;;23.75;11.88;;;3.40;71.70;;;;;;4143305;28;20018;-86
2023/03/29 02:34:27;;;;;;;22.10;11.27;;;3.40;71.90;;;;;;4041759;29;20503;-84
2023/03/29 02:36:45;;;;;;;22.13;11.27;;;3.50;71.80;;;;;;4071246;29;20036;-85
2023/03/29 02:38:49;;;;;;;22.38;11.88;;;3.40;72.00;;;;;;4076740;29;20549;-88
2023/03/29 02:41:03;;;;;;;23.50;10.70;;;3.40;71.90;;;;;;4075622;29;20020;-86
2023/03/29 02:43:14;;;;;;;18.77;10.82;;;3.40;71.90;;;;;;4077860;29;20032;-86
2023/03/29 02:45:19;;;;;;;20.47;11.17;;;3.50;72.00;;;;;;4060343;29;20084;-86
2023/03/29 02:47:48;;;;;;;21.02;11.45;;;3.50;72.40;;;;;;4064280;29;20303;-86
2023/03/29 02:50:19;;;;;;;27.67;11.75;;;3.40;72.10;;;;;;4073616;29;20052;-86
2023/03/29 02:52:47;;;;;;;20.67;11.07;;;3.50;72.20;;;;;;4077280;29;20126;-86
2023/03/29 02:55:14;;;;;;;23.73;11.18;;;3.50;72.10;;;;;;4077224;29;20046;-86
2023/03/29 02:57:37;;;;;;;26.38;10.88;;;3.40;72.40;;;;;;4079408;29;20032;-85
2023/03/29 02:59:47;;;;;;;25.33;11.98;;;3.40;72.40;;;;;;4057825;29;20032;-86
2023/03/29 03:02:08;;;;;;;21.75;11.25;;;3.40;72.60;;;;;;4076158;29;20031;-86
2023/03/29 03:04:34;;;;;;;21.20;10.85;;;3.40;73.30;;;;;;4067959;29;20040;-86
2023/03/29 03:06:55;;;;;;;26.20;11.10;;;3.40;72.00;;;;;;4077002;29;20116;-85
2023/03/29 03:09:16;;;;;;;21.90;10.55;;;3.30;72.90;;;;;;4075450;28;20159;-85
2023/03/29 03:11:37;;;;;;;28.30;11.73;;;3.30;72.80;;;;;;4131209;28;20041;-86
2023/03/29 03:13:57;;;;;;;26.05;11.55;;;3.40;73.00;;;;;;4125497;28;20038;-86
2023/03/29 03:16:18;;;;;;;25.50;11.55;;;3.40;73.00;;;;;;4138698;28;20036;-85
2023/03/29 03:18:39;;;;;;;21.63;11.00;;;3.30;72.80;;;;;;4135556;28;20041;-87
2023/03/29 03:21:03;;;;;;;25.83;11.68;;;3.30;73.30;;;;;;4138588;28;20034;-86
2023/03/29 03:23:24;;;;;;;25.38;12.38;;;3.40;73.30;;;;;;4139557;28;20085;-86
2023/03/29 03:25:48;;;;;;;27.77;12.55;;;3.40;74.00;;;;;;4126871;28;20035;-88
2023/03/29 03:28:17;;;;;;;23.23;11.20;;;3.40;73.40;;;;;;4141640;28;20033;-85
2023/03/29 03:30:38;;;;;;;21.33;11.32;;;3.40;73.30;;;;;;4144423;28;20048;-85
2023/03/29 03:32:58;;;;;;;21.80;11.18;;;3.40;73.60;;;;;;4137932;28;20034;-85
2023/03/29 03:35:20;;;;;;;23.42;11.90;;;3.50;74.00;;;;;;4138079;28;20061;-86
2023/03/29 03:37:21;;;;;;;26.20;11.95;;;3.50;74.50;;;;;;4124702;28;20034;-86
2023/03/29 03:39:22;;;;;;;27.02;11.55;;;3.50;74.20;;;;;;4139704;28;21409;-86
2023/03/29 03:41:33;;;;;;;19.35;11.50;;;3.40;74.00;;;;;;4140512;28;20022;-85
2023/03/29 03:43:34;;;;;;;25.08;11.43;;;3.40;73.90;;;;;;4123448;28;20034;-84
2023/03/29 03:45:35;;;;;;;22.10;12.30;;;3.40;74.20;;;;;;4141995;28;20077;-86
2023/03/29 03:47:36;;;;;;;21.20;10.75;;;3.40;74.20;;;;;;4126594;28;20061;-87
2023/03/29 03:49:37;;;;;;;22.58;10.90;;;3.40;74.10;;;;;;4122916;28;20404;-86
2023/03/29 03:51:38;;;;;;;25.85;11.80;;;3.40;74.00;;;;;;4142340;28;20121;-86
2023/03/29 03:53:39;;;;;;;25.85;11.18;;;3.50;74.40;;;;;;4141434;28;20162;-84
2023/03/29 03:55:40;;;;;;;23.98;11.38;;;3.50;74.20;;;;;;4121326;28;20122;-86
2023/03/29 03:57:41;;;;;;;25.75;12.45;;;3.40;74.30;;;;;;4139347;28;20029;-85
2023/03/29 03:59:41;;;;;;;24.75;11.82;;;3.40;74.40;;;;;;4126644;28;20429;-85
2023/03/29 04:01:42;;;;;;;25.45;11.50;;;3.50;74.50;;;;;;4120863;28;20042;-87
2023/03/29 04:03:43;;;;;;;24.40;11.88;;;3.50;74.40;;;;;;4107335;28;20027;-85
2023/03/29 04:05:45;;;;;;;26.83;12.40;;;3.50;74.70;;;;;;4139294;28;20709;-86
2023/03/29 04:07:46;;;;;;;26.17;11.75;;;3.50;74.30;;;;;;4127345;28;20492;-85
2023/03/29 04:09:48;;;;;;;30.40;11.63;;;3.50;74.40;;;;;;4122793;28;20548;-85
2023/03/29 04:11:51;;;;;;;25.40;12.88;;;3.50;74.50;;;;;;4121758;28;20046;-86
2023/03/29 04:13:56;;;;;;;23.55;11.88;;;3.50;75.00;;;;;;4113238;28;20033;-87
2023/03/29 04:15:57;;;;;;;31.45;13.43;;;3.40;74.70;;;;;;4107404;28;20117;-85
2023/03/29 04:18:00;;;;;;;25.55;11.15;;;3.40;74.50;;;;;;4111632;28;20484;-85
2023/03/29 04:20:08;;;;;;;26.42;11.23;;;3.40;74.40;;;;;;4119666;28;20038;-85
2023/03/29 04:22:16;;;;;;;22.38;11.10;;;3.50;74.50;;;;;;4125521;28;20022;-86
2023/03/29 04:24:18;;;;;;;23.85;11.50;;;3.50;74.70;;;;;;4109025;28;20042;-86
2023/03/29 04:26:21;;;;;;;24.10;11.30;;;3.40;74.50;;;;;;4120129;28;20170;-85
2023/03/29 04:28:42;;;;;;;27.30;11.20;;;3.50;74.60;;;;;;4136120;28;20040;-85
2023/03/29 04:31:03;;;;;;;24.33;10.77;;;3.50;74.60;;;;;;4127560;28;20041;-86
2023/03/29 04:33:24;;;;;;;25.67;12.00;;;3.50;74.80;;;;;;4138146;28;20038;-86
2023/03/29 04:35:44;;;;;;;23.75;12.32;;;3.40;74.60;;;;;;4138570;28;20038;-86
2023/03/29 04:38:08;;;;;;;32.92;14.60;;;3.50;75.20;;;;;;4123606;28;20401;-85
2023/03/29 04:40:32;;;;;;;31.17;13.20;;;3.50;74.80;;;;;;4137366;28;20037;-86
2023/03/29 04:42:53;;;;;;;31.90;16.13;;;3.50;74.70;;;;;;4127058;28;20038;-85
2023/03/29 04:45:16;;;;;;;28.35;14.00;;;3.60;74.90;;;;;;4126219;28;20098;-85
2023/03/29 04:47:38;;;;;;;26.67;12.40;;;3.40;74.70;;;;;;4123159;28;20209;-86
2023/03/29 04:49:59;;;;;;;27.67;12.07;;;3.60;74.80;;;;;;4137510;28;20121;-86
2023/03/29 04:51:59;;;;;;;25.75;11.63;;;3.60;74.90;;;;;;4138108;28;20029;-85
2023/03/29 04:54:00;;;;;;;23.45;11.18;;;3.60;74.80;;;;;;4140244;28;20487;-85
2023/03/29 04:56:01;;;;;;;25.80;11.65;;;3.60;75.00;;;;;;4137964;28;20069;-86
2023/03/29 04:58:08;;;;;;;24.73;11.73;;;3.60;75.00;;;;;;4104939;28;20027;-85
2023/03/29 05:00:14;;;;;;;24.80;11.38;;;3.60;74.90;;;;;;4133906;28;20474;-85
2023/03/29 05:02:15;;;;;;;24.73;11.50;;;3.60;74.80;;;;;;4104013;28;20027;-85
2023/03/29 05:04:17;;;;;;;24.10;11.80;;;3.70;75.00;;;;;;4121831;28;20068;-86
2023/03/29 05:06:18;;;;;;;31.85;11.80;;;3.70;75.00;;;;;;4119137;28;20100;-85
2023/03/29 05:08:23;;;;;;;24.60;11.63;;;3.70;75.20;;;;;;4103191;28;20038;-87
2023/03/29 05:10:24;;;;;;;22.45;11.27;;;3.70;75.20;;;;;;4121068;28;20080;-85
2023/03/29 05:12:43;;;;;;;27.45;11.88;;;3.70;75.10;;;;;;4105389;28;20041;-86
2023/03/29 05:14:44;;;;;;;26.70;12.82;;;3.70;75.10;;;;;;4118501;28;20027;-85
2023/03/29 05:17:05;;;;;;;22.92;11.95;;;3.80;75.20;;;;;;4126720;28;20037;-85
2023/03/29 05:19:26;;;;;;;29.52;12.38;;;3.70;75.00;;;;;;4138490;28;20188;-87
2023/03/29 05:21:49;;;;;;;29.63;12.55;;;3.80;75.10;;;;;;4124248;28;20094;-86
2023/03/29 05:24:11;;;;;;;32.55;13.20;;;3.80;74.90;;;;;;4138044;28;20820;-86
2023/03/29 05:26:17;;;;;;;28.00;13.00;;;3.80;75.00;;;;;;4124237;28;20022;-86
2023/03/29 05:28:46;;;;;;;27.23;12.75;;;3.80;75.10;;;;;;4133746;28;20135;-85
2023/03/29 05:31:07;;;;;;;26.05;12.68;;;3.70;74.80;;;;;;4136131;28;20045;-85
2023/03/29 05:33:15;;;;;;;28.02;13.07;;;3.80;74.80;;;;;;4124256;28;20592;-86
2023/03/29 05:35:36;;;;;;;;;;;3.90;75.10;;;;;;4132808;28;20109;-87
2023/03/29 05:37:57;;;;;;;26.88;12.43;;;3.90;75.60;;;;;;4138157;28;19909;-85
2023/03/29 05:40:17;;;;;;;23.92;11.50;;;3.90;74.60;;;;;;4137809;28;20033;-86
2023/03/29 05:42:38;;;;;;;25.80;12.18;;;3.80;74.60;;;;;;4134950;28;20124;-85
2023/03/29 05:44:59;;;;;;;23.58;12.25;;;3.80;74.50;;;;;;4138426;28;20139;-85
2023/03/29 05:47:20;;;;;;;23.83;12.40;;;3.90;75.50;;;;;;4139414;28;20030;-85
2023/03/29 05:49:41;;;;;;;29.10;12.88;;;3.90;74.60;;;;;;4139780;28;20061;-87
2023/03/29 05:52:05;;;;;;;24.65;12.82;;;3.90;74.70;;;;;;4127270;28;20062;-86
2023/03/29 05:54:06;;;;;;;32.30;13.13;;;4.00;74.80;;;;;;4145003;28;20816;-87
2023/03/29 05:56:07;;;;;;;27.00;12.40;;;4.00;74.80;;;;;;4141406;28;20064;-86
2023/03/29 05:58:09;;;;;;;33.30;12.75;;;3.90;74.70;;;;;;4142186;28;20080;-86
2023/03/29 06:00:22;;;;;;;25.45;12.27;;;4.00;75.40;;;;;;4138228;28;20014;-85
2023/03/29 06:02:27;;;;;;;24.23;11.65;;;3.90;74.60;;;;;;4143133;28;20042;-85
2023/03/29 06:04:28;;;;;;;27.05;11.82;;;4.00;74.70;;;;;;4140755;28;20030;-85
2023/03/29 06:06:28;;;;;;;30.67;13.05;;;4.00;74.70;;;;;;4109570;28;20050;-86
2023/03/29 06:08:30;;;;;;;27.48;13.23;;;4.00;74.60;;;;;;4107774;28;20039;-85
2023/03/29 06:10:32;;;;;;;28.60;12.70;;;4.10;74.60;;;;;;4125146;28;20101;-85
2023/03/29 06:12:36;;;;;;;27.60;13.15;;;4.10;74.60;;;;;;4126435;28;20034;-85
2023/03/29 06:14:37;;;;;;;23.70;12.02;;;4.00;74.40;;;;;;4143304;28;20022;-85
2023/03/29 06:16:38;;;;;;;21.92;12.07;;;4.00;74.40;;;;;;4142035;28;20122;-85
2023/03/29 06:18:40;;;;;;;26.30;12.38;;;4.00;74.40;;;;;;4139054;28;20442;-86
2023/03/29 06:20:40;;;;;;;26.50;12.50;;;4.10;74.60;;;;;;4121783;28;20488;-87
2023/03/29 06:22:41;;;;;;;28.95;12.88;;;4.00;74.40;;;;;;4139529;28;20030;-86
2023/03/29 06:24:41;;;;;;;29.80;12.63;;;4.10;74.50;;;;;;4127125;28;20136;-85
2023/03/29 06:26:42;;;;;;;28.23;13.05;;;4.20;74.50;;;;;;4136711;28;20471;-85
2023/03/29 06:28:43;;;;;;;23.70;13.00;;;4.20;74.40;;;;;;4142104;28;20102;-87
2023/03/29 06:30:45;;;;;;;21.92;11.63;;;4.20;74.40;;;;;;4130271;28;20034;-85
2023/03/29 06:32:48;;;;;;;22.38;12.10;;;4.10;74.20;;;;;;4145123;28;20042;-85
2023/03/29 06:34:49;;;;;;;;;;;4.20;74.20;;;;;;4125629;28;20030;-85
2023/03/29 06:36:50;;;;;;;21.33;11.30;;;4.30;74.60;;;;;;4115543;28;19980;-85
2023/03/29 06:38:51;;;;;;;23.30;10.88;;;4.30;74.10;;;;;;4125057;28;20042;-85
2023/03/29 06:41:00;;;;;;;31.15;11.73;;;4.30;74.00;;;;;;4124201;28;20496;-86
2023/03/29 06:43:02;;;;;;;22.27;11.45;;;4.30;73.90;;;;;;4121241;28;20396;-85
2023/03/29 06:45:07;;;;;;;29.42;11.40;;;4.30;73.80;;;;;;4110401;28;20112;-86
2023/03/29 06:47:30;;;;;;;26.08;10.63;;;4.30;73.80;;;;;;4137563;28;20192;-86
2023/03/29 06:49:51;;;;;;;26.13;11.63;;;4.30;73.70;;;;;;4128505;28;20040;-85
2023/03/29 06:51:52;;;;;;;23.52;10.93;;;4.40;73.50;;;;;;4122077;28;20065;-85
2023/03/29 06:54:13;;;;;;;24.90;10.25;;;4.40;73.50;;;;;;4140995;28;20025;-86
2023/03/29 06:56:34;;;;;;;24.45;9.85;;;4.50;73.50;;;;;;4140328;28;20030;-85
2023/03/29 06:58:55;;;;;;;22.38;9.60;;;4.40;73.30;;;;;;4139349;28;20034;-87
2023/03/29 07:01:19;;;;;;;20.33;9.88;;;4.50;73.40;;;;;;4128139;28;20050;-85
2023/03/29 07:03:40;;;;;;;25.23;10.27;;;4.50;73.30;;;;;;4129572;28;20118;-85
2023/03/29 07:06:08;;;;;;;23.88;9.63;;;4.60;73.40;;;;;;4142232;28;20053;-85
2023/03/29 07:08:30;;;;;;;18.35;9.27;;;4.60;73.30;;;;;;4133673;28;20030;-88
2023/03/29 07:10:52;;;;;;;21.92;9.43;;;4.60;73.30;;;;;;4138443;28;20042;-86
2023/03/29 07:13:13;;;;;;;19.85;8.52;;;4.60;73.10;;;;;;4139183;28;20041;-86
2023/03/29 07:15:34;;;;;;;25.23;9.65;;;4.70;73.00;;;;;;4140398;28;20052;-86
2023/03/29 07:17:56;;;;;;;20.00;9.00;;;4.60;72.90;;;;;;4123189;28;20081;-83
2023/03/29 07:20:00;;;;;;;19.88;8.93;;;4.70;72.90;;;;;;4108290;28;20042;-86
2023/03/29 07:22:03;;;;;;;20.90;9.43;;;4.60;72.80;;;;;;4136515;28;20029;-86
2023/03/29 07:24:05;;;;;;;16.90;8.35;;;4.70;72.70;;;;;;4121236;28;20129;-86
2023/03/29 07:26:06;;;;;;;18.10;8.07;;;4.70;72.60;;;;;;4124831;28;20816;-86
2023/03/29 07:28:07;;;;;;;16.33;8.15;;;4.80;72.60;;;;;;4141288;28;20034;-87
2023/03/29 07:30:15;;;;;;;17.13;8.77;;;4.80;72.60;;;;;;4110210;28;20430;-86
2023/03/29 07:32:18;;;;;;;17.98;8.18;;;4.80;72.50;;;;;;4111623;28;20297;-86
2023/03/29 07:34:19;;;;;;;19.20;8.15;;;4.90;72.60;;;;;;4138748;28;20594;-85
2023/03/29 07:36:20;;;;;;;19.08;8.32;;;4.80;72.40;;;;;;4126356;28;20034;-85
2023/03/29 07:38:28;;;;;;;17.08;7.40;;;4.90;72.40;;;;;;4128682;28;20022;-86
2023/03/29 07:40:38;;;;;;;20.15;8.02;;;4.90;72.40;;;;;;4123436;28;20045;-86
2023/03/29 07:42:38;;;;;;;12.75;7.57;;;4.90;72.30;;;;;;4124562;28;20109;-86
2023/03/29 07:44:40;;;;;;;12.52;7.43;;;5.00;72.40;;;;;;4122347;28;20113;-87
2023/03/29 07:46:43;;;;;;;19.83;7.93;;;5.10;72.50;;;;;;4111883;28;20448;-85
2023/03/29 07:48:44;;;;;;;17.05;7.28;;;5.10;72.50;;;;;;4119100;28;20030;-85
2023/03/29 07:50:45;;;;;;;16.95;7.20;;;5.10;72.50;;;;;;4117842;28;20050;-85
2023/03/29 07:52:49;;;;;;;17.45;7.03;;;5.10;72.40;;;;;;4142104;28;20121;-86
2023/03/29 07:54:49;;;;;;;13.52;5.97;;;5.20;72.30;;;;;;4124003;28;20555;-86
2023/03/29 07:56:50;;;;;;;15.30;7.30;;;5.30;72.50;;;;;;4137492;28;20086;-87
2023/03/29 07:58:50;;;;;;;17.83;6.40;;;5.30;72.30;;;;;;4139306;28;20041;-86
2023/03/29 08:00:54;;;;;;;14.15;6.95;;;5.30;72.20;;;;;;4136796;28;20108;-85
2023/03/29 08:02:56;;;;;;;18.48;7.05;;;5.30;72.20;;;;;;4121543;28;20126;-86
2023/03/29 08:04:57;;;;;;;16.88;7.80;;;5.40;72.20;;;;;;4123135;28;20057;-85
2023/03/29 08:06:58;;;;;;;12.80;6.63;;;5.50;72.20;;;;;;4137333;28;20038;-86
2023/03/29 08:08:59;;;;;;;15.60;6.70;;;5.50;72.20;;;;;;4123157;28;20061;-85
2023/03/29 08:11:00;;;;;;;15.10;7.18;;;5.50;72.20;;;;;;4109558;28;20030;-86
2023/03/29 08:13:04;;;;;;;15.52;6.85;;;5.60;72.10;;;;;;4139215;28;20372;-86
2023/03/29 08:15:12;;;;;;;15.80;6.72;;;5.50;72.00;;;;;;4125944;28;20023;-86
2023/03/29 08:17:12;;;;;;;11.15;6.60;;;5.60;72.10;;;;;;4104448;28;20031;-86
2023/03/29 08:19:17;;;;;;;12.43;6.40;;;5.70;72.10;;;;;;4122173;28;20030;-85
2023/03/29 08:21:19;;;;;;;18.48;7.55;;;5.70;72.10;;;;;;4120932;28;20128;-86
2023/03/29 08:23:20;;;;;;;13.77;6.88;;;5.80;72.20;;;;;;4124167;28;20026;-86
2023/03/29 08:25:24;;;;;;;14.63;7.38;;;5.80;72.20;;;;;;4119853;28;20687;-86
2023/03/29 08:27:25;;;;;;;16.80;7.10;;;6.00;72.20;;;;;;4125721;28;20030;-87
2023/03/29 08:29:30;;;;;;;14.02;6.53;;;5.90;72.00;;;;;;4121667;28;20037;-87
2023/03/29 08:31:31;;;;;;;17.65;7.70;;;6.00;71.90;;;;;;4110678;28;20035;-85
2023/03/29 08:33:31;;;;;;;15.70;7.18;;;6.10;71.80;;;;;;4120926;28;20038;-86
2023/03/29 08:35:32;;;;;;;13.77;7.07;;;6.20;71.60;;;;;;4125345;28;20026;-86
2023/03/29 08:37:39;;;;;;;16.33;7.53;;;6.20;71.40;;;;;;4111730;28;20102;-85
2023/03/29 08:40:00;;;;;;;13.55;7.03;;;6.30;71.50;;;;;;4137255;28;20598;-85
2023/03/29 08:42:43;;;;;;;14.48;7.38;;;6.30;71.40;;;;;;4136546;28;20516;-87
2023/03/29 08:45:24;;;;;;;14.70;6.95;;;6.40;71.20;;;;;;4126273;28;20033;-86
2023/03/29 08:48:02;;;;;;;15.68;7.55;;;6.40;71.10;;;;;;4120713;28;20166;-86
2023/03/29 08:50:32;;;;;;;15.40;7.57;;;6.40;71.10;;;;;;4139825;28;20164;-87
2023/03/29 08:53:04;;;;;;;13.48;7.75;;;6.60;71.00;;;;;;4124117;28;20759;-89
2023/03/29 08:55:40;;;;;;;14.80;8.02;;;6.60;70.70;;;;;;4141737;28;20657;-85
2023/03/29 08:58:03;;;;;;;15.35;7.85;;;6.60;70.60;;;;;;4141209;28;20030;-85
2023/03/29 09:00:51;;;;;;;13.65;8.00;;;6.70;70.70;;;;;;4136868;28;20026;-85
2023/03/29 09:03:24;;;;;;;18.25;8.60;;;6.70;70.40;;;;;;4126998;28;20037;-84
2023/03/29 09:05:53;;;;;;;17.05;8.90;;;6.70;70.50;;;;;;4137030;28;20026;-86
2023/03/29 09:08:16;;;;;;;19.00;8.68;;;6.90;70.70;;;;;;4138630;28;20041;-86
2023/03/29 09:11:01;;;;;;;16.95;8.70;;;6.90;70.60;;;;;;4124027;28;20564;-87
2023/03/29 09:13:31;;;;;;;17.13;9.00;;;7.00;70.60;;;;;;4123737;28;20033;-85
2023/03/29 09:16:10;;;;;;;19.10;8.82;;;7.00;70.20;;;;;;4124627;28;20056;-86
2023/03/29 09:18:50;;;;;;;21.33;9.27;;;7.10;69.90;;;;;;4137502;28;20034;-86
2023/03/29 09:21:58;;;;;;;19.20;9.38;;;7.10;69.60;;;;;;4138374;28;20056;-87
2023/03/29 09:24:17;;;;;;;14.60;8.23;;;7.10;69.30;;;;;;4043154;29;20085;-86
2023/03/29 09:26:30;;;;;;;17.27;9.50;;;7.20;69.30;;;;;;4044112;29;20079;-85
2023/03/29 09:28:42;;;;;;;16.70;9.45;;;7.20;69.10;;;;;;4043258;29;20056;-87
2023/03/29 09:30:56;;;;;;;19.88;9.40;;;7.20;68.90;;;;;;4030963;29;20092;-87
2023/03/29 09:33:12;;;;;;;19.67;9.10;;;7.30;68.80;;;;;;4025339;29;20472;-87
2023/03/29 09:35:20;;;;;;;20.95;9.52;;;7.20;68.60;;;;;;4043329;29;20598;-85
2023/03/29 09:37:32;;;;;;;15.88;9.35;;;7.30;68.70;;;;;;4043338;29;20555;-86
2023/03/29 09:39:32;;;;;;;21.55;10.27;;;7.20;68.50;;;;;;4044423;29;20028;-85
2023/03/29 09:41:41;;;;;;;19.52;9.73;;;7.20;68.50;;;;;;4023920;29;20034;-86
2023/03/29 09:43:46;;;;;;;16.02;9.68;;;7.20;68.30;;;;;;4044482;29;20578;-85
2023/03/29 09:45:51;;;;;;;20.75;9.93;;;7.20;68.30;;;;;;4030309;29;20125;-85
2023/03/29 09:48:12;;;;;;;18.00;10.35;;;7.10;68.30;;;;;;4043008;29;20116;-85
2023/03/29 09:50:35;;;;;;;20.63;10.38;;;7.10;68.30;;;;;;4043171;29;20036;-86
2023/03/29 09:52:36;;;;;;;20.15;10.82;;;7.10;68.30;;;;;;4039788;29;20189;-86
2023/03/29 09:54:37;;;;;;;17.90;10.38;;;7.10;68.40;;;;;;4029925;29;20148;-85
2023/03/29 09:56:38;;;;;;;20.50;11.48;;;7.10;68.50;;;;;;4046796;29;20289;-85
2023/03/29 09:58:41;;;;;;;22.60;11.13;;;7.10;68.60;;;;;;4044695;29;20033;-87
2023/03/29 10:00:43;;;;;;;24.52;11.95;;;7.10;69.10;;;;;;4092166;28;20050;-85
2023/03/29 10:02:58;;;;;;;22.77;11.98;;;7.00;68.90;;;;;;4121155;28;20132;-87
2023/03/29 10:05:18;;;;;;;23.42;11.55;;;7.00;69.10;;;;;;4126017;28;20030;-85
2023/03/29 10:07:21;;;;;;;19.30;11.43;;;6.90;69.10;;;;;;4124916;28;20033;-85
2023/03/29 10:09:24;;;;;;;22.95;12.38;;;7.00;69.40;;;;;;4123794;28;20604;-86
2023/03/29 10:11:37;;;;;;;25.20;12.48;;;7.00;69.50;;;;;;4138547;28;20640;-86
2023/03/29 10:14:12;;;;;;;20.55;12.00;;;6.90;69.60;;;;;;4135876;28;20057;-86
2023/03/29 10:16:37;;;;;;;22.65;13.13;;;6.90;69.70;;;;;;4137941;28;20022;-87
2023/03/29 10:18:57;;;;;;;23.73;12.90;;;7.00;70.10;;;;;;4124895;28;20062;-88
2023/03/29 10:21:22;;;;;;;26.58;13.45;;;6.90;70.00;;;;;;4125776;28;20114;-86
2023/03/29 10:23:49;;;;;;;25.98;13.48;;;7.00;70.30;;;;;;4135297;28;20255;-86
2023/03/29 10:26:31;;;;;;;23.60;13.85;;;6.90;70.20;;;;;;4120539;28;20019;-88
2023/03/29 10:28:56;;;;;;;21.30;13.23;;;6.90;70.30;;;;;;4122297;28;20035;-86
2023/03/29 10:31:21;;;;;;;;;;;6.90;70.40;;;;;;4133621;28;20113;-89
2023/03/29 10:33:41;;;;;;;25.13;13.43;;;6.90;71.10;;;;;;4138460;28;20627;-85
2023/03/29 10:36:05;;;;;;;26.05;13.43;;;6.90;70.40;;;;;;4141280;28;20065;-85
2023/03/29 10:38:27;;;;;;;;;;;7.00;70.50;;;;;;4141939;28;20041;-86
2023/03/29 10:40:51;;;;;;;27.98;14.98;;;7.00;71.20;;;;;;4128175;28;19917;-85
2023/03/29 10:43:13;;;;;;;24.90;12.77;;;7.10;70.70;;;;;;4140981;28;20030;-86
2023/03/29 10:45:34;;;;;;;23.10;13.32;;;7.10;70.60;;;;;;4143596;28;20049;-86
2023/03/29 10:47:56;;;;;;;24.90;14.68;;;7.10;70.90;;;;;;4128454;28;20129;-87
2023/03/29 10:50:18;;;;;;;32.72;14.13;;;7.10;71.20;;;;;;4138063;28;20041;-85
2023/03/29 10:52:39;;;;;;;22.70;12.52;;;7.10;71.10;;;;;;4138476;28;20064;-86
2023/03/29 10:54:59;;;;;;;28.77;15.00;;;7.20;71.20;;;;;;4138567;28;20030;-85
2023/03/29 10:57:35;;;;;;;23.50;14.07;;;7.20;71.00;;;;;;4136504;28;20025;-85
2023/03/29 11:00:39;;;;;;;25.75;13.32;;;7.10;71.10;;;;;;4138778;28;20025;-86
2023/03/29 11:03:43;;;;;;;24.95;13.55;;;7.10;71.20;;;;;;4128851;28;20156;-85
2023/03/29 11:06:31;;;;;;;22.17;12.88;;;7.10;71.40;;;;;;4140015;28;20029;-85
2023/03/29 11:09:13;;;;;;;24.27;13.38;;;7.20;71.50;;;;;;4137217;28;20044;-86
2023/03/29 11:11:39;;;;;;;27.40;14.93;;;7.20;71.50;;;;;;4141953;28;20030;-85
2023/03/29 11:14:23;;;;;;;25.60;14.05;;;7.30;71.40;;;;;;4139402;28;20271;-84
2023/03/29 11:16:53;;;;;;;24.60;14.50;;;7.30;72.40;;;;;;4117288;28;20022;-85
2023/03/29 11:19:38;;;;;;;24.38;14.20;;;7.30;71.50;;;;;;4138167;28;20038;-85
2023/03/29 11:22:18;;;;;;;28.42;15.07;;;7.30;71.40;;;;;;4137821;28;20033;-85
2023/03/29 11:25:14;;;;;;;27.25;15.35;;;7.30;71.40;;;;;;4142200;28;20033;-85
2023/03/29 11:27:46;;;;;;;27.98;15.02;;;7.40;72.40;;;;;;4124574;28;20631;-87
2023/03/29 11:30:00;;;;;;;28.58;16.63;;;7.40;71.70;;;;;;4125288;28;20030;-85
2023/03/29 11:32:34;;;;;;;29.27;15.18;;;7.50;71.90;;;;;;4139386;28;20045;-85
2023/03/29 11:34:35;;;;;;;29.10;16.67;;;7.50;72.10;;;;;;4140831;28;20039;-86